sensor_id;sensor_type;location;lat;lon;timestamp;pressure;altitude;pressure_sealevel;temperature;humidity
50852;BME280;43953;45.508;-122.806;2022-11-20T00:00:10;101599.41;;;9.55;34.20
50852;BME280;43953;45.508;-122.806;2022-11-20T00:00:42;101604.13;;;9.53;34.10
50852;BME280;43953;45.508;-122.806;2022-11-20T00:01:16;101608.69;;;9.53;34.37
50852;BME280;43953;45.508;-122.806;2022-11-20T00:01:48;101608.69;;;9.53;34.10
50852;BME280;43953;45.508;-122.806;2022-11-20T00:02:20;101613.22;;;9.52;34.07
50852;BME280;43953;45.508;-122.806;2022-11-20T00:02:51;101612.56;;;9.50;34.41
50852;BME280;43953;45.508;-122.806;2022-11-20T00:03:23;101609.88;;;9.50;34.02
50852;BME280;43953;45.508;-122.806;2022-11-20T00:03:56;101605.69;;;9.48;34.02
50852;BME280;43953;45.508;-122.806;2022-11-20T00:04:29;101615.59;;;9.47;34.01
50852;BME280;43953;45.508;-122.806;2022-11-20T00:05:00;101611.22;;;9.46;33.90
50852;BME280;43953;45.508;-122.806;2022-11-20T00:05:33;101609.75;;;9.44;34.00
50852;BME280;43953;45.508;-122.806;2022-11-20T00:06:07;101608.91;;;9.43;34.29
50852;BME280;43953;45.508;-122.806;2022-11-20T00:06:39;101604.75;;;9.41;34.22
50852;BME280;43953;45.508;-122.806;2022-11-20T00:07:11;101604.75;;;9.41;34.17
50852;BME280;43953;45.508;-122.806;2022-11-20T00:07:43;101601.38;;;9.39;34.20
50852;BME280;43953;45.508;-122.806;2022-11-20T00:08:15;101594.16;;;9.39;34.24
50852;BME280;43953;45.508;-122.806;2022-11-20T00:08:47;101599.72;;;9.38;34.30
50852;BME280;43953;45.508;-122.806;2022-11-20T00:09:19;101607.94;;;9.36;34.16
50852;BME280;43953;45.508;-122.806;2022-11-20T00:09:51;101601.75;;;9.36;33.94
50852;BME280;43953;45.508;-122.806;2022-11-20T00:10:23;101604.59;;;9.34;34.27
50852;BME280;43953;45.508;-122.806;2022-11-20T00:10:55;101606.28;;;9.35;34.17
50852;BME280;43953;45.508;-122.806;2022-11-20T00:11:28;101606.28;;;9.35;34.16
50852;BME280;43953;45.508;-122.806;2022-11-20T00:12:00;101606.66;;;9.32;34.19
50852;BME280;43953;45.508;-122.806;2022-11-20T00:12:32;101604.94;;;9.31;34.34
50852;BME280;43953;45.508;-122.806;2022-11-20T00:13:04;101597.72;;;9.31;34.26
50852;BME280;43953;45.508;-122.806;2022-11-20T00:13:36;101596.25;;;9.29;34.47
50852;BME280;43953;45.508;-122.806;2022-11-20T00:14:09;101600.78;;;9.28;34.44
50852;BME280;43953;45.508;-122.806;2022-11-20T00:14:41;101603.28;;;9.30;33.98
50852;BME280;43953;45.508;-122.806;2022-11-20T00:15:13;101595.41;;;9.28;34.35
50852;BME280;43953;45.508;-122.806;2022-11-20T00:15:45;101603.66;;;9.27;34.18
50852;BME280;43953;45.508;-122.806;2022-11-20T00:16:19;101601.13;;;9.25;34.31
50852;BME280;43953;45.508;-122.806;2022-11-20T00:16:51;101603.81;;;9.25;34.29
50852;BME280;43953;45.508;-122.806;2022-11-20T00:17:23;101597.59;;;9.25;34.37
50852;BME280;43953;45.508;-122.806;2022-11-20T00:17:55;101609.38;;;9.24;34.23
50852;BME280;43953;45.508;-122.806;2022-11-20T00:18:27;101600.66;;;9.22;34.31
50852;BME280;43953;45.508;-122.806;2022-11-20T00:18:59;101593.63;;;9.21;34.54
50852;BME280;43953;45.508;-122.806;2022-11-20T00:19:31;101596.31;;;9.21;34.54
50852;BME280;43953;45.508;-122.806;2022-11-20T00:20:03;101600.00;;;9.20;34.52
50852;BME280;43953;45.508;-122.806;2022-11-20T00:20:35;101603.69;;;9.19;34.47
50852;BME280;43953;45.508;-122.806;2022-11-20T00:21:11;101602.03;;;9.18;34.27
50852;BME280;43953;45.508;-122.806;2022-11-20T00:21:43;101603.03;;;9.17;34.22
50852;BME280;43953;45.508;-122.806;2022-11-20T00:22:15;101601.38;;;9.16;34.29
50852;BME280;43953;45.508;-122.806;2022-11-20T00:22:46;101595.16;;;9.15;34.38
50852;BME280;43953;45.508;-122.806;2022-11-20T00:23:19;101603.03;;;9.17;34.17
50852;BME280;43953;45.508;-122.806;2022-11-20T00:23:52;101598.31;;;9.19;34.55
50852;BME280;43953;45.508;-122.806;2022-11-20T00:24:24;101608.03;;;9.20;34.35
50852;BME280;43953;45.508;-122.806;2022-11-20T00:24:56;101604.72;;;9.18;34.46
50852;BME280;43953;45.508;-122.806;2022-11-20T00:25:29;101598.31;;;9.19;34.24
50852;BME280;43953;45.508;-122.806;2022-11-20T00:26:05;101603.69;;;9.19;34.50
50852;BME280;43953;45.508;-122.806;2022-11-20T00:26:37;101601.22;;;9.17;34.49
50852;BME280;43953;45.508;-122.806;2022-11-20T00:27:09;101604.06;;;9.16;34.31
50852;BME280;43953;45.508;-122.806;2022-11-20T00:27:41;101600.69;;;9.14;34.17
50852;BME280;43953;45.508;-122.806;2022-11-20T00:28:13;101591.34;;;9.09;34.29
50852;BME280;43953;45.508;-122.806;2022-11-20T00:28:49;101607.44;;;9.09;34.05
50852;BME280;43953;45.508;-122.806;2022-11-20T00:29:22;101599.56;;;9.08;34.33
50852;BME280;43953;45.508;-122.806;2022-11-20T00:29:53;101600.78;;;9.05;34.72
50852;BME280;43953;45.508;-122.806;2022-11-20T00:30:25;101604.28;;;9.06;34.33
50852;BME280;43953;45.508;-122.806;2022-11-20T00:31:08;101601.97;;;9.03;34.35
50852;BME280;43953;45.508;-122.806;2022-11-20T00:31:40;101603.16;;;9.00;34.45
50852;BME280;43953;45.508;-122.806;2022-11-20T00:32:12;101602.31;;;9.00;34.74
50852;BME280;43953;45.508;-122.806;2022-11-20T00:32:44;101602.31;;;9.00;34.39
50852;BME280;43953;45.508;-122.806;2022-11-20T00:33:15;101608.53;;;9.00;34.39
50852;BME280;43953;45.508;-122.806;2022-11-20T00:33:47;101606.84;;;8.99;34.36
50852;BME280;43953;45.508;-122.806;2022-11-20T00:34:19;101609.53;;;8.99;34.48
50852;BME280;43953;45.508;-122.806;2022-11-20T00:34:51;101602.31;;;9.00;34.45
50852;BME280;43953;45.508;-122.806;2022-11-20T00:35:22;101602.94;;;9.02;34.53
50852;BME280;43953;45.508;-122.806;2022-11-20T00:36:02;101606.50;;;9.02;34.82
50852;BME280;43953;45.508;-122.806;2022-11-20T00:36:35;101602.78;;;9.03;34.86
50852;BME280;43953;45.508;-122.806;2022-11-20T00:37:06;101608.84;;;9.05;34.84
50852;BME280;43953;45.508;-122.806;2022-11-20T00:37:38;101609.00;;;9.04;35.00
50852;BME280;43953;45.508;-122.806;2022-11-20T00:38:10;101603.16;;;9.00;34.79
50852;BME280;43953;45.508;-122.806;2022-11-20T00:38:42;101601.50;;;8.99;34.78
50852;BME280;43953;45.508;-122.806;2022-11-20T00:39:14;101608.69;;;8.99;34.87
50852;BME280;43953;45.508;-122.806;2022-11-20T00:39:45;101606.00;;;8.99;35.04
50852;BME280;43953;45.508;-122.806;2022-11-20T00:40:17;101602.47;;;8.98;35.09
50852;BME280;43953;45.508;-122.806;2022-11-20T00:40:55;101600.81;;;8.97;35.12
50852;BME280;43953;45.508;-122.806;2022-11-20T00:41:29;101600.16;;;8.95;34.99
50852;BME280;43953;45.508;-122.806;2022-11-20T00:42:01;101600.34;;;8.94;34.91
50852;BME280;43953;45.508;-122.806;2022-11-20T00:42:33;101595.13;;;8.92;35.15
50852;BME280;43953;45.508;-122.806;2022-11-20T00:43:05;101598.00;;;8.91;34.98
50852;BME280;43953;45.508;-122.806;2022-11-20T00:43:37;101601.69;;;8.89;35.05
50852;BME280;43953;45.508;-122.806;2022-11-20T00:44:09;101606.22;;;8.89;35.09
50852;BME280;43953;45.508;-122.806;2022-11-20T00:44:40;101602.88;;;8.87;35.15
50852;BME280;43953;45.508;-122.806;2022-11-20T00:45:12;101608.25;;;8.87;35.15
50852;BME280;43953;45.508;-122.806;2022-11-20T00:45:44;101596.66;;;8.86;35.07
50852;BME280;43953;45.508;-122.806;2022-11-20T00:46:18;101596.50;;;8.88;35.01
50852;BME280;43953;45.508;-122.806;2022-11-20T00:46:50;101605.56;;;8.87;34.73
50852;BME280;43953;45.508;-122.806;2022-11-20T00:47:22;101600.38;;;8.85;35.05
50852;BME280;43953;45.508;-122.806;2022-11-20T00:47:53;101597.03;;;8.83;35.03
50852;BME280;43953;45.508;-122.806;2022-11-20T00:48:25;101598.22;;;8.81;34.87
50852;BME280;43953;45.508;-122.806;2022-11-20T00:48:57;101601.09;;;8.79;35.20
50852;BME280;43953;45.508;-122.806;2022-11-20T00:49:29;101600.25;;;8.79;35.01
50852;BME280;43953;45.508;-122.806;2022-11-20T00:50:01;101597.72;;;8.77;35.13
50852;BME280;43953;45.508;-122.806;2022-11-20T00:50:33;101600.59;;;8.76;34.98
50852;BME280;43953;45.508;-122.806;2022-11-20T00:51:05;101597.25;;;8.74;34.74
50852;BME280;43953;45.508;-122.806;2022-11-20T00:51:37;101602.78;;;8.72;34.68
50852;BME280;43953;45.508;-122.806;2022-11-20T00:52:09;101600.28;;;8.71;34.96
50852;BME280;43953;45.508;-122.806;2022-11-20T00:52:40;101604.00;;;8.70;35.11
50852;BME280;43953;45.508;-122.806;2022-11-20T00:53:12;101594.25;;;8.69;35.19
50852;BME280;43953;45.508;-122.806;2022-11-20T00:53:44;101605.81;;;8.69;35.00
50852;BME280;43953;45.508;-122.806;2022-11-20T00:54:16;101602.50;;;8.67;35.23
50852;BME280;43953;45.508;-122.806;2022-11-20T00:54:48;101597.28;;;8.65;35.26
50852;BME280;43953;45.508;-122.806;2022-11-20T00:55:20;101599.13;;;8.65;35.50
50852;BME280;43953;45.508;-122.806;2022-11-20T00:56:00;101601.97;;;8.63;35.30
50852;BME280;43953;45.508;-122.806;2022-11-20T00:56:31;101602.31;;;8.60;35.28
50852;BME280;43953;45.508;-122.806;2022-11-20T00:57:03;101599.00;;;8.58;35.43
50852;BME280;43953;45.508;-122.806;2022-11-20T00:57:35;101604.38;;;8.58;35.48
50852;BME280;43953;45.508;-122.806;2022-11-20T00:58:06;101603.53;;;8.58;35.20
50852;BME280;43953;45.508;-122.806;2022-11-20T00:58:40;101605.34;;;8.57;35.35
50852;BME280;43953;45.508;-122.806;2022-11-20T00:59:12;101605.53;;;8.56;35.25
50852;BME280;43953;45.508;-122.806;2022-11-20T00:59:44;101601.34;;;8.53;35.61
50852;BME280;43953;45.508;-122.806;2022-11-20T01:00:16;101598.66;;;8.53;35.57
50852;BME280;43953;45.508;-122.806;2022-11-20T01:00:48;101599.69;;;8.52;35.29
50852;BME280;43953;45.508;-122.806;2022-11-20T01:01:24;101593.47;;;8.52;35.52
50852;BME280;43953;45.508;-122.806;2022-11-20T01:01:56;101600.69;;;8.51;35.45
50852;BME280;43953;45.508;-122.806;2022-11-20T01:02:28;101602.53;;;8.51;35.37
50852;BME280;43953;45.508;-122.806;2022-11-20T01:03:00;101597.34;;;8.49;35.40
50852;BME280;43953;45.508;-122.806;2022-11-20T01:03:33;101601.03;;;8.48;35.56
50852;BME280;43953;45.508;-122.806;2022-11-20T01:04:04;101602.72;;;8.49;35.51
50852;BME280;43953;45.508;-122.806;2022-11-20T01:04:36;101600.38;;;8.46;35.70
50852;BME280;43953;45.508;-122.806;2022-11-20T01:05:08;101599.38;;;8.47;35.68
50852;BME280;43953;45.508;-122.806;2022-11-20T01:05:40;101601.22;;;8.47;35.55
50852;BME280;43953;45.508;-122.806;2022-11-20T01:06:45;101605.56;;;8.48;35.54
50852;BME280;43953;45.508;-122.806;2022-11-20T01:07:17;101599.19;;;8.49;35.79
50852;BME280;43953;45.508;-122.806;2022-11-20T01:07:49;101595.66;;;8.48;35.58
50852;BME280;43953;45.508;-122.806;2022-11-20T01:08:21;101595.50;;;8.50;35.73
50852;BME280;43953;45.508;-122.806;2022-11-20T01:08:55;101600.19;;;8.48;35.65
50852;BME280;43953;45.508;-122.806;2022-11-20T01:09:27;101594.00;;;8.47;35.66
50852;BME280;43953;45.508;-122.806;2022-11-20T01:09:59;101598.69;;;8.45;35.69
50852;BME280;43953;45.508;-122.806;2022-11-20T01:10:30;101602.41;;;8.44;35.61
50852;BME280;43953;45.508;-122.806;2022-11-20T01:11:05;101599.88;;;8.42;35.70
50852;BME280;43953;45.508;-122.806;2022-11-20T01:11:42;101596.34;;;8.42;35.74
50852;BME280;43953;45.508;-122.806;2022-11-20T01:12:14;101594.50;;;8.42;35.43
50852;BME280;43953;45.508;-122.806;2022-11-20T01:12:46;101602.41;;;8.44;35.64
50852;BME280;43953;45.508;-122.806;2022-11-20T01:13:38;101597.88;;;8.45;35.76
50852;BME280;43953;45.508;-122.806;2022-11-20T01:14:13;101600.38;;;8.46;35.51
50852;BME280;43953;45.508;-122.806;2022-11-20T01:14:47;101601.56;;;8.43;35.57
50852;BME280;43953;45.508;-122.806;2022-11-20T01:15:18;101590.16;;;8.41;35.31
50852;BME280;43953;45.508;-122.806;2022-11-20T01:15:50;101604.59;;;8.40;35.26
50852;BME280;43953;45.508;-122.806;2022-11-20T01:16:27;101600.22;;;8.39;35.20
50852;BME280;43953;45.508;-122.806;2022-11-20T01:16:59;101597.69;;;8.38;35.28
50852;BME280;43953;45.508;-122.806;2022-11-20T01:17:31;101596.00;;;8.37;35.07
50852;BME280;43953;45.508;-122.806;2022-11-20T01:18:03;101593.50;;;8.35;35.41
50852;BME280;43953;45.508;-122.806;2022-11-20T01:18:38;101601.72;;;8.34;35.54
50852;BME280;43953;45.508;-122.806;2022-11-20T01:19:13;101600.06;;;8.33;35.66
50852;BME280;43953;45.508;-122.806;2022-11-20T01:19:47;101600.88;;;8.33;35.69
50852;BME280;43953;45.508;-122.806;2022-11-20T01:20:19;101601.72;;;8.34;35.63
50852;BME280;43953;45.508;-122.806;2022-11-20T01:20:51;101601.72;;;8.34;35.67
50852;BME280;43953;45.508;-122.806;2022-11-20T01:21:26;101597.38;;;8.33;35.67
50852;BME280;43953;45.508;-122.806;2022-11-20T01:21:58;101603.75;;;8.32;35.70
50852;BME280;43953;45.508;-122.806;2022-11-20T01:22:30;101593.38;;;8.29;35.71
50852;BME280;43953;45.508;-122.806;2022-11-20T01:23:05;101598.88;;;8.27;35.84
50852;BME280;43953;45.508;-122.806;2022-11-20T01:23:39;101607.97;;;8.26;35.69
50852;BME280;43953;45.508;-122.806;2022-11-20T01:24:14;101600.91;;;8.25;35.82
50852;BME280;43953;45.508;-122.806;2022-11-20T01:24:46;101606.44;;;8.24;36.11
50852;BME280;43953;45.508;-122.806;2022-11-20T01:25:18;101597.72;;;8.21;35.76
50852;BME280;43953;45.508;-122.806;2022-11-20T01:25:50;101607.63;;;8.21;35.97
50852;BME280;43953;45.508;-122.806;2022-11-20T01:26:25;101612.66;;;8.24;36.09
50852;BME280;43953;45.508;-122.806;2022-11-20T01:26:57;101600.41;;;8.21;36.16
50852;BME280;43953;45.508;-122.806;2022-11-20T01:27:29;101605.78;;;8.21;35.73
50852;BME280;43953;45.508;-122.806;2022-11-20T01:28:00;101604.94;;;8.21;35.87
50852;BME280;43953;45.508;-122.806;2022-11-20T01:28:33;101606.81;;;8.20;36.06
50852;BME280;43953;45.508;-122.806;2022-11-20T01:29:06;101605.13;;;8.19;35.85
50852;BME280;43953;45.508;-122.806;2022-11-20T01:29:38;101604.47;;;8.17;35.99
50852;BME280;43953;45.508;-122.806;2022-11-20T01:30:10;101597.44;;;8.16;35.96
50852;BME280;43953;45.508;-122.806;2022-11-20T01:30:42;101609.97;;;8.16;36.07
50852;BME280;43953;45.508;-122.806;2022-11-20T01:31:40;101614.84;;;8.12;36.04
50852;BME280;43953;45.508;-122.806;2022-11-20T01:32:12;101607.81;;;8.11;35.82
50852;BME280;43953;45.508;-122.806;2022-11-20T01:32:44;101610.50;;;8.11;35.87
50852;BME280;43953;45.508;-122.806;2022-11-20T01:33:16;101613.19;;;8.11;36.06
50852;BME280;43953;45.508;-122.806;2022-11-20T01:33:49;101610.50;;;8.11;36.21
50852;BME280;43953;45.508;-122.806;2022-11-20T01:34:22;101612.19;;;8.12;36.18
50852;BME280;43953;45.508;-122.806;2022-11-20T01:34:54;101609.50;;;8.12;35.89
50852;BME280;43953;45.508;-122.806;2022-11-20T01:35:26;101617.53;;;8.12;36.11
50852;BME280;43953;45.508;-122.806;2022-11-20T01:36:04;101612.53;;;8.09;36.05
50852;BME280;43953;45.508;-122.806;2022-11-20T01:36:37;101610.03;;;8.08;36.02
50852;BME280;43953;45.508;-122.806;2022-11-20T01:37:09;101610.84;;;8.08;36.04
50852;BME280;43953;45.508;-122.806;2022-11-20T01:37:41;101614.53;;;8.07;35.88
50852;BME280;43953;45.508;-122.806;2022-11-20T01:38:14;101607.50;;;8.06;35.70
50852;BME280;43953;45.508;-122.806;2022-11-20T01:38:46;101608.66;;;8.04;36.25
50852;BME280;43953;45.508;-122.806;2022-11-20T01:39:23;101615.06;;;8.03;36.15
50852;BME280;43953;45.508;-122.806;2022-11-20T01:39:55;101606.16;;;8.02;35.91
50852;BME280;43953;45.508;-122.806;2022-11-20T01:40:27;101611.69;;;8.01;36.17
50852;BME280;43953;45.508;-122.806;2022-11-20T01:40:59;101612.53;;;8.01;36.38
50852;BME280;43953;45.508;-122.806;2022-11-20T01:41:32;101623.25;;;8.01;36.16
50852;BME280;43953;45.508;-122.806;2022-11-20T01:42:22;101624.13;;;8.02;36.22
50852;BME280;43953;45.508;-122.806;2022-11-20T01:43:19;101619.75;;;8.01;35.99
50852;BME280;43953;45.508;-122.806;2022-11-20T01:43:54;101618.06;;;8.00;36.18
50852;BME280;43953;45.508;-122.806;2022-11-20T01:44:54;101619.91;;;7.99;36.22
50852;BME280;43953;45.508;-122.806;2022-11-20T01:45:50;101628.97;;;7.98;36.22
50852;BME280;43953;45.508;-122.806;2022-11-20T01:46:24;101624.63;;;7.97;36.57
50852;BME280;43953;45.508;-122.806;2022-11-20T01:47:00;101621.94;;;7.97;36.40
50852;BME280;43953;45.508;-122.806;2022-11-20T01:47:34;101624.63;;;7.97;36.42
50852;BME280;43953;45.508;-122.806;2022-11-20T01:48:07;101620.41;;;7.94;36.26
50852;BME280;43953;45.508;-122.806;2022-11-20T01:49:20;101629.63;;;7.92;36.41
50852;BME280;43953;45.508;-122.806;2022-11-20T01:50:32;101623.44;;;7.91;36.39
50852;BME280;43953;45.508;-122.806;2022-11-20T01:51:10;101626.94;;;7.92;36.25
50852;BME280;43953;45.508;-122.806;2022-11-20T01:52:33;101623.97;;;7.87;36.39
50852;BME280;43953;45.508;-122.806;2022-11-20T01:53:09;101632.00;;;7.87;36.40
50852;BME280;43953;45.508;-122.806;2022-11-20T01:53:42;101628.47;;;7.86;36.51
50852;BME280;43953;45.508;-122.806;2022-11-20T01:54:22;101623.97;;;7.87;36.68
50852;BME280;43953;45.508;-122.806;2022-11-20T01:55:00;101631.16;;;7.86;36.76
50852;BME280;43953;45.508;-122.806;2022-11-20T01:55:41;101630.50;;;7.84;36.42
50852;BME280;43953;45.508;-122.806;2022-11-20T01:56:15;101638.53;;;7.84;36.62
50852;BME280;43953;45.508;-122.806;2022-11-20T01:56:48;101633.19;;;7.84;36.34
50852;BME280;43953;45.508;-122.806;2022-11-20T01:57:25;101628.66;;;7.85;36.85
50852;BME280;43953;45.508;-122.806;2022-11-20T01:58:00;101636.50;;;7.86;36.38
50852;BME280;43953;45.508;-122.806;2022-11-20T01:58:36;101638.34;;;7.86;36.96
50852;BME280;43953;45.508;-122.806;2022-11-20T01:59:10;101638.53;;;7.84;36.52
50852;BME280;43953;45.508;-122.806;2022-11-20T01:59:51;101646.75;;;7.83;36.93
50852;BME280;43953;45.508;-122.806;2022-11-20T02:00:25;101644.25;;;7.81;36.43
50852;BME280;43953;45.508;-122.806;2022-11-20T02:00:57;101643.38;;;7.81;36.63
50852;BME280;43953;45.508;-122.806;2022-11-20T02:01:29;101646.06;;;7.81;36.89
50852;BME280;43953;45.508;-122.806;2022-11-20T02:02:01;101644.41;;;7.80;36.52
50852;BME280;43953;45.508;-122.806;2022-11-20T02:02:33;101649.75;;;7.80;36.73
50852;BME280;43953;45.508;-122.806;2022-11-20T02:03:14;101655.81;;;7.82;36.96
50852;BME280;43953;45.508;-122.806;2022-11-20T02:03:48;101650.44;;;7.82;36.81
50852;BME280;43953;45.508;-122.806;2022-11-20T02:04:21;101651.28;;;7.82;36.54
50852;BME280;43953;45.508;-122.806;2022-11-20T02:04:57;101654.97;;;7.81;36.88
50852;BME280;43953;45.508;-122.806;2022-11-20T02:07:25;101662.31;;;7.71;36.75
50852;BME280;43953;45.508;-122.806;2022-11-20T02:07:58;101670.22;;;7.72;36.76
50852;BME280;43953;45.508;-122.806;2022-11-20T02:08:31;101671.88;;;7.73;37.14
50852;BME280;43953;45.508;-122.806;2022-11-20T02:09:03;101665.50;;;7.74;36.77
50852;BME280;43953;45.508;-122.806;2022-11-20T02:09:35;101672.56;;;7.75;36.76
50852;BME280;43953;45.508;-122.806;2022-11-20T02:10:07;101666.38;;;7.75;36.69
50852;BME280;43953;45.508;-122.806;2022-11-20T02:10:39;101673.53;;;7.74;37.02
50852;BME280;43953;45.508;-122.806;2022-11-20T02:11:11;101672.72;;;7.74;36.66
50852;BME280;43953;45.508;-122.806;2022-11-20T02:11:44;101664.84;;;7.72;37.10
50852;BME280;43953;45.508;-122.806;2022-11-20T02:12:15;101676.06;;;7.76;36.87
50852;BME280;43953;45.508;-122.806;2022-11-20T02:13:05;101677.41;;;7.72;36.89
50852;BME280;43953;45.508;-122.806;2022-11-20T02:13:55;101677.56;;;7.70;36.93
50852;BME280;43953;45.508;-122.806;2022-11-20T02:14:27;101672.34;;;7.69;37.21
50852;BME280;43953;45.508;-122.806;2022-11-20T02:14:59;101677.72;;;7.69;37.60
50852;BME280;43953;45.508;-122.806;2022-11-20T02:15:33;101678.59;;;7.69;37.32
50852;BME280;43953;45.508;-122.806;2022-11-20T02:16:08;101682.25;;;7.68;37.40
50852;BME280;43953;45.508;-122.806;2022-11-20T02:16:45;101685.94;;;7.67;37.14
50852;BME280;43953;45.508;-122.806;2022-11-20T02:17:17;101683.25;;;7.67;37.61
50852;BME280;43953;45.508;-122.806;2022-11-20T02:17:49;101675.22;;;7.67;37.42
50852;BME280;43953;45.508;-122.806;2022-11-20T02:18:21;101685.94;;;7.67;37.13
50852;BME280;43953;45.508;-122.806;2022-11-20T02:18:55;101683.41;;;7.66;37.39
50852;BME280;43953;45.508;-122.806;2022-11-20T02:19:31;101690.63;;;7.65;37.11
50852;BME280;43953;45.508;-122.806;2022-11-20T02:20:03;101680.09;;;7.64;37.39
50852;BME280;43953;45.508;-122.806;2022-11-20T02:20:35;101681.06;;;7.63;37.03
50852;BME280;43953;45.508;-122.806;2022-11-20T02:21:58;101683.44;;;7.58;37.39
50852;BME280;43953;45.508;-122.806;2022-11-20T02:22:41;101682.91;;;7.54;37.29
50852;BME280;43953;45.508;-122.806;2022-11-20T02:23:36;101685.91;;;7.51;37.41
50852;BME280;43953;45.508;-122.806;2022-11-20T02:24:14;101686.09;;;7.49;37.55
50852;BME280;43953;45.508;-122.806;2022-11-20T02:24:48;101687.94;;;7.49;37.38
50852;BME280;43953;45.508;-122.806;2022-11-20T02:25:21;101685.25;;;7.49;37.42
50852;BME280;43953;45.508;-122.806;2022-11-20T02:25:58;101678.38;;;7.46;37.33
50852;BME280;43953;45.508;-122.806;2022-11-20T02:27:14;101682.56;;;7.49;37.42
50852;BME280;43953;45.508;-122.806;2022-11-20T02:27:47;101679.72;;;7.50;37.56
50852;BME280;43953;45.508;-122.806;2022-11-20T02:28:19;101682.41;;;7.50;37.59
50852;BME280;43953;45.508;-122.806;2022-11-20T02:28:50;101680.56;;;7.51;37.42
50852;BME280;43953;45.508;-122.806;2022-11-20T02:29:43;101690.44;;;7.50;37.59
50852;BME280;43953;45.508;-122.806;2022-11-20T02:30:16;101678.88;;;7.50;37.83
50852;BME280;43953;45.508;-122.806;2022-11-20T02:30:48;101684.41;;;7.48;37.34
50852;BME280;43953;45.508;-122.806;2022-11-20T02:31:19;101675.38;;;7.49;37.62
50852;BME280;43953;45.508;-122.806;2022-11-20T02:31:51;101686.09;;;7.49;37.60
50852;BME280;43953;45.508;-122.806;2022-11-20T02:32:30;101675.53;;;7.48;37.60
50852;BME280;43953;45.508;-122.806;2022-11-20T02:33:03;101676.53;;;7.47;37.70
50852;BME280;43953;45.508;-122.806;2022-11-20T02:33:34;101684.75;;;7.45;37.72
50852;BME280;43953;45.508;-122.806;2022-11-20T02:34:06;101673.34;;;7.43;37.50
50852;BME280;43953;45.508;-122.806;2022-11-20T02:34:41;101680.72;;;7.41;37.81
50852;BME280;43953;45.508;-122.806;2022-11-20T02:35:50;101675.53;;;7.40;37.92
50852;BME280;43953;45.508;-122.806;2022-11-20T02:36:24;101681.88;;;7.39;37.59
50852;BME280;43953;45.508;-122.806;2022-11-20T02:36:59;101677.53;;;7.38;37.39
50852;BME280;43953;45.508;-122.806;2022-11-20T02:37:35;101677.69;;;7.36;37.84
50852;BME280;43953;45.508;-122.806;2022-11-20T02:38:08;101686.56;;;7.37;37.61
50852;BME280;43953;45.508;-122.806;2022-11-20T02:38:40;101676.84;;;7.36;37.55
50852;BME280;43953;45.508;-122.806;2022-11-20T02:39:13;101684.72;;;7.37;37.91
50852;BME280;43953;45.508;-122.806;2022-11-20T02:39:49;101675.19;;;7.35;37.72
50852;BME280;43953;45.508;-122.806;2022-11-20T02:40:23;101679.69;;;7.34;37.45
50852;BME280;43953;45.508;-122.806;2022-11-20T02:40:54;101680.53;;;7.35;37.48
50852;BME280;43953;45.508;-122.806;2022-11-20T02:41:34;101679.69;;;7.34;37.81
50852;BME280;43953;45.508;-122.806;2022-11-20T02:42:06;101671.81;;;7.33;37.99
50852;BME280;43953;45.508;-122.806;2022-11-20T02:42:38;101682.53;;;7.33;37.63
50852;BME280;43953;45.508;-122.806;2022-11-20T02:43:09;101675.50;;;7.32;37.71
50852;BME280;43953;45.508;-122.806;2022-11-20T02:43:41;101679.19;;;7.31;38.07
50852;BME280;43953;45.508;-122.806;2022-11-20T02:44:13;101683.69;;;7.30;38.09
50852;BME280;43953;45.508;-122.806;2022-11-20T02:44:45;101680.88;;;7.32;37.64
50852;BME280;43953;45.508;-122.806;2022-11-20T02:45:17;101684.56;;;7.31;37.77
50852;BME280;43953;45.508;-122.806;2022-11-20T02:45:48;101679.34;;;7.29;38.10
50852;BME280;43953;45.508;-122.806;2022-11-20T02:46:20;101678.50;;;7.28;37.96
50852;BME280;43953;45.508;-122.806;2022-11-20T02:46:52;101672.31;;;7.28;37.83
50852;BME280;43953;45.508;-122.806;2022-11-20T02:47:24;101675.84;;;7.28;37.71
50852;BME280;43953;45.508;-122.806;2022-11-20T02:47:56;101672.47;;;7.26;37.98
50852;BME280;43953;45.508;-122.806;2022-11-20T02:48:27;101678.84;;;7.25;37.77
50852;BME280;43953;45.508;-122.806;2022-11-20T02:49:01;101670.81;;;7.25;37.67
50852;BME280;43953;45.508;-122.806;2022-11-20T02:49:33;101670.81;;;7.25;37.61
50852;BME280;43953;45.508;-122.806;2022-11-20T02:50:06;101667.28;;;7.25;38.40
50852;BME280;43953;45.508;-122.806;2022-11-20T02:50:38;101673.63;;;7.24;38.14
50852;BME280;43953;45.508;-122.806;2022-11-20T02:51:11;101670.94;;;7.24;37.96
50852;BME280;43953;45.508;-122.806;2022-11-20T02:51:42;101679.00;;;7.24;38.02
50852;BME280;43953;45.508;-122.806;2022-11-20T02:52:14;101672.81;;;7.23;38.13
50852;BME280;43953;45.508;-122.806;2022-11-20T02:52:46;101676.50;;;7.22;37.85
50852;BME280;43953;45.508;-122.806;2022-11-20T02:53:18;101673.81;;;7.22;38.12
50852;BME280;43953;45.508;-122.806;2022-11-20T02:53:50;101673.97;;;7.21;38.17
50852;BME280;43953;45.508;-122.806;2022-11-20T02:54:23;101667.78;;;7.20;38.11
50852;BME280;43953;45.508;-122.806;2022-11-20T02:54:55;101670.44;;;7.20;37.91
50852;BME280;43953;45.508;-122.806;2022-11-20T02:55:26;101667.78;;;7.20;38.05
50852;BME280;43953;45.508;-122.806;2022-11-20T02:55:58;101671.47;;;7.19;38.09
50852;BME280;43953;45.508;-122.806;2022-11-20T02:56:31;101664.59;;;7.17;38.40
50852;BME280;43953;45.508;-122.806;2022-11-20T02:57:03;101663.56;;;7.18;38.22
50852;BME280;43953;45.508;-122.806;2022-11-20T02:57:34;101675.13;;;7.18;38.34
50852;BME280;43953;45.508;-122.806;2022-11-20T02:58:06;101674.13;;;7.19;37.74